createdAt,value
2018-02-22T00:00:32.021Z,0.00
2018-02-22T00:01:32.017Z,0.00
2018-02-22T00:02:31.922Z,0.00
2018-02-22T00:03:31.920Z,0.00
2018-02-22T00:04:31.849Z,0.00
2018-02-22T00:05:31.824Z,0.00
2018-02-22T00:06:31.792Z,0.00
2018-02-22T00:07:31.759Z,0.00
2018-02-22T00:08:31.804Z,0.00
2018-02-22T00:09:31.693Z,0.00
2018-02-22T00:10:31.667Z,0.00
2018-02-22T00:11:31.631Z,0.00
2018-02-22T00:12:31.591Z,0.00
2018-02-22T00:13:31.556Z,0.00
2018-02-22T00:14:31.509Z,0.00
2018-02-22T00:15:31.620Z,0.00
2018-02-22T00:16:31.447Z,0.00
2018-02-22T00:17:31.418Z,0.00
2018-02-22T00:18:31.384Z,0.00
2018-02-22T00:19:31.444Z,0.00
2018-02-22T00:20:31.352Z,0.00
2018-02-22T00:21:31.304Z,0.00
2018-02-22T00:22:31.297Z,0.00
2018-02-22T00:23:31.358Z,0.00
2018-02-22T00:24:31.167Z,0.00
2018-02-22T00:25:31.157Z,0.00
2018-02-22T00:26:31.101Z,0.00
2018-02-22T00:27:31.097Z,0.00
2018-02-22T00:28:31.035Z,0.00
2018-02-22T00:29:31.007Z,0.00
2018-02-22T00:30:31.007Z,0.00
2018-02-22T00:31:31.115Z,0.00
2018-02-22T00:32:30.913Z,0.00
2018-02-22T00:33:30.872Z,0.00
2018-02-22T00:34:30.931Z,0.00
2018-02-22T00:35:30.805Z,0.00
2018-02-22T00:36:30.837Z,0.00
2018-02-22T00:37:30.737Z,0.00
2018-02-22T00:38:30.650Z,0.00
2018-02-22T00:39:30.611Z,0.00
2018-02-22T00:40:30.571Z,0.00
2018-02-22T00:41:30.538Z,0.00
2018-02-22T00:42:30.507Z,0.00
2018-02-22T00:43:30.478Z,0.00
2018-02-22T00:44:30.480Z,0.00
2018-02-22T00:45:30.501Z,0.00
2018-02-22T00:46:30.382Z,0.00
2018-02-22T00:47:30.382Z,0.00
2018-02-22T00:48:30.312Z,0.00
2018-02-22T00:49:30.374Z,0.00
2018-02-22T00:50:30.321Z,0.00
2018-02-22T00:51:30.197Z,0.00
2018-02-22T00:52:30.162Z,0.00
2018-02-22T00:53:30.144Z,0.00
2018-02-22T00:54:30.185Z,0.00
2018-02-22T00:55:30.067Z,0.00
2018-02-22T00:56:30.034Z,0.00
2018-02-22T00:57:29.994Z,0.00
2018-02-22T00:58:29.983Z,0.00
2018-02-22T00:59:29.928Z,0.00
2018-02-22T01:00:29.892Z,0.00
2018-02-22T01:01:30.002Z,0.00
2018-02-22T01:02:29.912Z,0.00
2018-02-22T01:03:29.790Z,0.00
2018-02-22T01:04:29.761Z,0.00
2018-02-22T01:05:29.747Z,0.00
2018-02-22T01:06:29.756Z,0.00
2018-02-22T01:07:29.652Z,0.00
2018-02-22T01:08:29.620Z,0.00
2018-02-22T01:09:29.596Z,0.00
2018-02-22T01:10:29.572Z,0.00
2018-02-22T01:11:29.519Z,0.00
2018-02-22T01:12:29.478Z,0.00
2018-02-22T01:13:29.444Z,0.00
2018-02-22T01:14:29.411Z,0.00
2018-02-22T01:15:29.429Z,0.00
2018-02-22T01:16:29.350Z,0.00
2018-02-22T01:17:29.383Z,0.00
2018-02-22T01:18:29.278Z,0.00
2018-02-22T01:19:29.243Z,0.00
2018-02-22T01:20:29.297Z,0.00
2018-02-22T01:21:29.181Z,0.00
2018-02-22T01:22:29.245Z,0.00
2018-02-22T01:23:29.115Z,0.00
2018-02-22T01:24:29.072Z,0.00
2018-02-22T01:25:29.032Z,0.00
2018-02-22T01:26:29.158Z,0.00
2018-02-22T01:27:28.975Z,0.00
2018-02-22T01:28:28.933Z,0.00
2018-02-22T01:29:28.980Z,0.00
2018-02-22T01:30:28.871Z,0.00
2018-02-22T01:31:28.827Z,0.00
2018-02-22T01:32:28.816Z,0.00
2018-02-22T01:33:28.763Z,0.00
2018-02-22T01:34:28.799Z,0.00
2018-02-22T01:35:28.698Z,0.00
2018-02-22T01:36:28.653Z,0.00
2018-02-22T01:37:28.619Z,0.00
2018-02-22T01:38:28.696Z,0.00
2018-02-22T01:39:28.644Z,0.00
2018-02-22T01:40:28.536Z,0.00
2018-02-22T01:41:28.513Z,0.00
2018-02-22T01:42:28.459Z,0.00
2018-02-22T01:43:28.421Z,0.00
2018-02-22T01:44:28.385Z,0.00
2018-02-22T01:45:28.434Z,0.00
2018-02-22T01:46:28.323Z,0.00
2018-02-22T01:47:28.279Z,0.00
2018-02-22T01:48:28.246Z,0.00
2018-02-22T01:49:28.250Z,0.00
2018-02-22T01:50:28.188Z,0.00
2018-02-22T01:51:28.665Z,0.00
2018-02-22T01:52:28.114Z,0.00
2018-02-22T01:53:28.082Z,0.00
2018-02-22T01:54:28.095Z,0.00
2018-02-22T01:55:28.049Z,0.00
2018-02-22T01:56:28.008Z,0.00
2018-02-22T01:57:28.036Z,0.00
2018-02-22T01:58:27.907Z,0.00
2018-02-22T01:59:27.867Z,0.00
2018-02-22T02:00:27.962Z,0.00
2018-02-22T02:01:27.798Z,0.00
2018-02-22T02:02:27.792Z,0.00
2018-02-22T02:03:27.730Z,0.00
2018-02-22T02:04:27.809Z,0.00
2018-02-22T02:05:27.707Z,0.00
2018-02-22T02:06:27.631Z,0.00
2018-02-22T02:07:27.588Z,0.00
2018-02-22T02:08:27.563Z,0.00
2018-02-22T02:09:27.534Z,0.00
2018-02-22T02:10:27.485Z,0.00
2018-02-22T02:11:27.455Z,0.00
2018-02-22T02:12:27.433Z,0.00
2018-02-22T02:13:27.482Z,0.00
2018-02-22T02:14:27.359Z,0.00
2018-02-22T02:15:27.322Z,0.00
2018-02-22T02:16:27.285Z,0.00
2018-02-22T02:17:27.247Z,0.00
2018-02-22T02:18:27.214Z,0.00
2018-02-22T02:19:27.186Z,0.00
2018-02-22T02:20:27.235Z,0.00
2018-02-22T02:21:27.105Z,0.00
2018-02-22T02:22:27.073Z,0.00
2018-02-22T02:23:27.044Z,0.00
2018-02-22T02:24:27.012Z,0.00
2018-02-22T02:25:26.979Z,0.00
2018-02-22T02:26:26.934Z,0.00
2018-02-22T02:27:26.920Z,0.00
2018-02-22T02:28:26.910Z,0.00
2018-02-22T02:29:26.839Z,0.00
2018-02-22T02:30:26.858Z,0.00
2018-02-22T02:31:26.783Z,0.00
2018-02-22T02:32:26.762Z,0.00
2018-02-22T02:33:26.821Z,0.00
2018-02-22T02:34:26.671Z,0.00
2018-02-22T02:35:26.639Z,0.00
2018-02-22T02:36:26.590Z,0.00
2018-02-22T02:37:26.575Z,0.00
2018-02-22T02:38:26.526Z,0.00
2018-02-22T02:39:26.581Z,0.00
2018-02-22T02:40:26.481Z,0.00
2018-02-22T02:41:26.420Z,0.00
2018-02-22T02:42:26.412Z,0.00
2018-02-22T02:43:26.372Z,0.00
2018-02-22T02:44:26.338Z,0.00
2018-02-22T02:45:26.278Z,0.00
2018-02-22T02:46:26.334Z,0.00
2018-02-22T02:47:26.218Z,0.00
2018-02-22T02:48:26.202Z,0.00
2018-02-22T02:49:26.233Z,0.00
2018-02-22T02:50:26.154Z,0.00
2018-02-22T02:51:26.076Z,0.00
2018-02-22T02:52:26.060Z,0.00
2018-02-22T02:53:26.061Z,0.00
2018-02-22T02:54:25.969Z,0.00
2018-02-22T02:55:25.959Z,0.00
2018-02-22T02:56:25.942Z,0.00
2018-02-22T02:57:25.939Z,0.00
2018-02-22T02:58:25.833Z,0.00
2018-02-22T02:59:25.836Z,0.00
2018-02-22T03:00:25.781Z,0.00
2018-02-22T03:01:25.734Z,0.00
2018-02-22T03:02:25.732Z,0.00
2018-02-22T03:03:25.662Z,0.00
2018-02-22T03:04:25.626Z,0.00
2018-02-22T03:05:25.651Z,0.00
2018-02-22T03:06:25.548Z,0.00
2018-02-22T03:07:25.593Z,0.00
2018-02-22T03:08:25.489Z,0.00
2018-02-22T03:09:25.456Z,0.00
2018-02-22T03:10:25.642Z,0.00
2018-02-22T03:11:25.486Z,0.00
2018-02-22T03:12:25.431Z,0.00
2018-02-22T03:13:25.319Z,0.00
2018-02-22T03:14:25.276Z,0.00
2018-02-22T03:15:25.303Z,0.00
2018-02-22T03:16:25.267Z,0.00
2018-02-22T03:17:25.204Z,0.00
2018-02-22T03:18:25.252Z,0.00
2018-02-22T03:19:25.103Z,0.00
2018-02-22T03:20:25.066Z,0.00
2018-02-22T03:21:25.060Z,0.00
2018-02-22T03:22:25.036Z,0.00
2018-02-22T03:23:24.972Z,0.00
2018-02-22T03:24:25.030Z,0.00
2018-02-22T03:25:24.897Z,0.00
2018-02-22T03:26:24.886Z,0.00
2018-02-22T03:27:24.837Z,0.00
2018-02-22T03:28:24.800Z,0.00
2018-02-22T03:29:24.756Z,0.00
2018-02-22T03:30:24.729Z,0.00
2018-02-22T03:31:24.767Z,0.00
2018-02-22T03:32:24.648Z,0.00
2018-02-22T03:33:24.627Z,0.00
2018-02-22T03:34:24.652Z,0.00
2018-02-22T03:35:24.546Z,0.00
2018-02-22T03:36:24.528Z,0.00
2018-02-22T03:37:24.525Z,0.00
2018-02-22T03:38:24.541Z,0.00
2018-02-22T03:39:24.461Z,0.00
2018-02-22T03:40:24.375Z,0.00
2018-02-22T03:41:24.343Z,0.00
2018-02-22T03:42:24.318Z,0.00
2018-02-22T03:43:24.360Z,0.00
2018-02-22T03:44:24.248Z,0.00
2018-02-22T03:45:24.207Z,0.00
2018-02-22T03:46:24.244Z,0.00
2018-02-22T03:47:24.191Z,0.00
2018-02-22T03:48:24.126Z,0.00
2018-02-22T03:49:24.090Z,0.00
2018-02-22T03:50:24.027Z,0.00
2018-02-22T03:51:23.995Z,0.00
2018-02-22T03:52:23.961Z,0.00
2018-02-22T03:53:24.045Z,0.00
2018-02-22T03:54:23.996Z,0.00
2018-02-22T03:55:23.847Z,0.00
2018-02-22T03:56:23.813Z,0.00
2018-02-22T03:57:23.782Z,0.00
2018-02-22T03:58:23.742Z,0.00
2018-02-22T03:59:23.719Z,0.00
2018-02-22T04:00:23.679Z,0.00
2018-02-22T04:01:23.708Z,0.00
2018-02-22T04:02:23.605Z,0.00
2018-02-22T04:03:23.575Z,0.00
2018-02-22T04:04:23.693Z,0.00
2018-02-22T04:05:23.507Z,0.00
2018-02-22T04:06:23.476Z,0.00
2018-02-22T04:07:23.580Z,0.00
2018-02-22T04:08:23.397Z,0.00
2018-02-22T04:09:23.373Z,0.00
2018-02-22T04:10:23.424Z,0.00
2018-02-22T04:11:23.297Z,0.00
2018-02-22T04:12:23.265Z,0.00
2018-02-22T04:13:23.263Z,0.00
2018-02-22T04:14:23.185Z,0.00
2018-02-22T04:15:23.152Z,0.00
2018-02-22T04:16:23.141Z,0.00
2018-02-22T04:17:23.097Z,0.00
2018-02-22T04:18:23.080Z,0.00
2018-02-22T04:19:23.031Z,0.00
2018-02-22T04:20:22.979Z,0.00
2018-02-22T04:21:23.020Z,0.00
2018-02-22T04:22:22.963Z,0.00
2018-02-22T04:23:22.876Z,0.00
2018-02-22T04:24:22.843Z,0.00
2018-02-22T04:25:22.841Z,0.00
2018-02-22T04:26:22.809Z,0.00
2018-02-22T04:27:22.737Z,0.00
2018-02-22T04:28:22.702Z,0.00
2018-02-22T04:29:22.735Z,0.00
2018-02-22T04:30:22.664Z,0.00
2018-02-22T04:31:22.592Z,0.00
2018-02-22T04:32:22.569Z,0.00
2018-02-22T04:33:22.522Z,0.00
2018-02-22T04:34:22.558Z,0.00
2018-02-22T04:35:22.475Z,0.00
2018-02-22T04:36:22.424Z,0.00
2018-02-22T04:37:22.399Z,0.00
2018-02-22T04:38:22.358Z,0.00
2018-02-22T04:39:22.328Z,0.00
2018-02-22T04:40:22.277Z,0.00
2018-02-22T04:41:22.321Z,0.00
2018-02-22T04:42:22.216Z,0.00
2018-02-22T04:43:22.192Z,0.00
2018-02-22T04:44:22.218Z,0.00
2018-02-22T04:45:22.114Z,0.00
2018-02-22T04:46:22.084Z,0.00
2018-02-22T04:47:22.067Z,0.00
2018-02-22T04:48:22.083Z,0.00
2018-02-22T04:49:21.972Z,0.00
2018-02-22T04:50:21.955Z,0.00
2018-02-22T04:51:21.941Z,0.00
2018-02-22T04:52:21.862Z,0.00
2018-02-22T04:53:21.841Z,0.00
2018-02-22T04:54:21.822Z,0.00
2018-02-22T04:55:21.756Z,0.00
2018-02-22T04:56:21.839Z,0.00
2018-02-22T04:57:21.687Z,0.00
2018-02-22T04:58:21.651Z,0.00
2018-02-22T04:59:21.626Z,0.00
2018-02-22T05:00:21.643Z,0.00
2018-02-22T05:01:21.549Z,0.00
2018-02-22T05:02:21.563Z,0.00
2018-02-22T05:03:21.483Z,0.00
2018-02-22T05:04:21.490Z,0.00
2018-02-22T05:05:21.410Z,0.00
2018-02-22T05:06:21.373Z,0.00
2018-02-22T05:07:21.338Z,0.00
2018-02-22T05:08:21.510Z,0.00
2018-02-22T05:09:21.396Z,0.00
2018-02-22T05:10:21.234Z,0.00
2018-02-22T05:11:21.196Z,0.00
2018-02-22T05:12:21.291Z,0.00
2018-02-22T05:13:21.124Z,0.00
2018-02-22T05:14:21.097Z,0.00
2018-02-22T05:15:21.074Z,0.00
2018-02-22T05:16:21.130Z,0.00
2018-02-22T05:17:20.999Z,0.00
2018-02-22T05:18:20.988Z,0.00
2018-02-22T05:19:21.052Z,0.00
2018-02-22T05:20:20.888Z,0.00
2018-02-22T05:21:20.863Z,0.00
2018-02-22T05:22:20.821Z,0.00
2018-02-22T05:23:20.779Z,0.00
2018-02-22T05:24:20.740Z,0.00
2018-02-22T05:25:20.709Z,0.00
2018-02-22T05:26:20.672Z,0.00
2018-02-22T05:27:20.634Z,0.00
2018-02-22T05:28:20.621Z,0.00
2018-02-22T05:29:20.609Z,0.00
2018-02-22T05:30:20.620Z,0.00
2018-02-22T05:31:20.498Z,0.00
2018-02-22T05:32:20.475Z,0.00
2018-02-22T05:33:20.528Z,0.00
2018-02-22T05:34:20.433Z,0.00
2018-02-22T05:35:20.369Z,0.00
2018-02-22T05:36:20.329Z,0.00
2018-02-22T05:37:20.304Z,0.00
2018-02-22T05:38:20.260Z,0.00
2018-02-22T05:39:20.217Z,0.00
2018-02-22T05:40:20.234Z,0.00
2018-02-22T05:41:20.151Z,0.00
2018-02-22T05:42:20.109Z,0.00
2018-02-22T05:43:20.195Z,0.00
2018-02-22T05:44:20.046Z,0.00
2018-02-22T05:45:20.072Z,0.00
2018-02-22T05:46:20.096Z,0.00
2018-02-22T05:47:19.966Z,0.00
2018-02-22T05:48:19.907Z,0.00
2018-02-22T05:49:19.943Z,0.00
2018-02-22T05:50:19.886Z,0.00
2018-02-22T05:51:19.809Z,0.00
2018-02-22T05:52:19.793Z,0.00
2018-02-22T05:53:19.735Z,0.00
2018-02-22T05:54:19.768Z,0.00
2018-02-22T05:55:19.785Z,0.00
2018-02-22T05:56:19.640Z,0.00
2018-02-22T05:57:19.585Z,0.00
2018-02-22T05:58:19.552Z,0.00
2018-02-22T05:59:19.525Z,0.00
2018-02-22T06:00:19.485Z,0.00
2018-02-22T06:01:19.453Z,0.00
2018-02-22T06:02:19.412Z,0.00
2018-02-22T06:03:19.398Z,0.00
2018-02-22T06:04:19.337Z,0.00
2018-02-22T06:05:19.305Z,0.00
2018-02-22T06:06:19.285Z,0.00
2018-02-22T06:07:19.281Z,0.00
2018-02-22T06:08:19.201Z,0.00
2018-02-22T06:09:19.162Z,0.00
2018-02-22T06:10:19.152Z,0.00
2018-02-22T06:11:19.109Z,0.00
2018-02-22T06:12:19.264Z,0.00
2018-02-22T06:13:19.032Z,0.00
2018-02-22T06:14:18.997Z,0.00
2018-02-22T06:15:18.962Z,0.00
2018-02-22T06:16:18.921Z,0.00
2018-02-22T06:17:18.887Z,0.00
2018-02-22T06:18:18.873Z,0.00
2018-02-22T06:19:18.846Z,0.00
2018-02-22T06:20:18.785Z,0.00
2018-02-22T06:21:18.743Z,0.00
2018-02-22T06:22:18.713Z,0.00
2018-02-22T06:23:18.773Z,0.00
2018-02-22T06:24:18.640Z,5.63
2018-02-22T06:25:18.603Z,5.63
2018-02-22T06:26:18.650Z,5.63
2018-02-22T06:27:18.586Z,5.63
2018-02-22T06:28:18.552Z,5.63
2018-02-22T06:29:18.466Z,5.63
2018-02-22T06:30:18.448Z,11.25
2018-02-22T06:31:18.513Z,11.25
2018-02-22T06:32:18.365Z,11.25
2018-02-22T06:33:18.455Z,11.25
2018-02-22T06:34:18.298Z,16.88
2018-02-22T06:35:18.340Z,16.88
2018-02-22T06:36:18.334Z,16.88
2018-02-22T06:37:18.178Z,16.88
2018-02-22T06:38:18.201Z,22.50
2018-02-22T06:39:18.109Z,22.50
2018-02-22T06:40:18.179Z,22.50
2018-02-22T06:41:18.154Z,22.50
2018-02-22T06:42:18.032Z,28.13
2018-02-22T06:43:18.291Z,28.13
2018-02-22T06:44:17.940Z,28.13
2018-02-22T06:45:17.968Z,33.75
2018-02-22T06:46:17.868Z,33.75
2018-02-22T06:47:17.949Z,39.38
2018-02-22T06:48:17.806Z,39.38
2018-02-22T06:49:17.762Z,45.00
2018-02-22T06:50:17.732Z,45.00
2018-02-22T06:51:17.718Z,45.00
2018-02-22T06:52:17.654Z,50.63
2018-02-22T06:53:17.622Z,50.63
2018-02-22T06:54:17.582Z,56.25
2018-02-22T06:55:17.547Z,56.25
2018-02-22T06:56:17.514Z,61.88
2018-02-22T06:57:17.486Z,61.88
2018-02-22T06:58:17.563Z,61.88
2018-02-22T06:59:17.411Z,67.50
2018-02-22T07:00:17.424Z,67.50
2018-02-22T07:01:17.348Z,73.13
2018-02-22T07:02:17.315Z,73.13
2018-02-22T07:03:17.321Z,73.13
2018-02-22T07:04:17.282Z,78.75
2018-02-22T07:05:17.261Z,78.75
2018-02-22T07:06:17.164Z,84.38
2018-02-22T07:07:17.193Z,84.38
2018-02-22T07:08:17.090Z,90.00
2018-02-22T07:09:17.180Z,90.00
2018-02-22T07:10:17.508Z,90.00
2018-02-22T07:11:17.092Z,95.63
2018-02-22T07:12:16.955Z,95.63
2018-02-22T07:13:16.918Z,101.25
2018-02-22T07:14:16.912Z,101.25
2018-02-22T07:15:16.878Z,101.25
2018-02-22T07:16:16.901Z,106.88
2018-02-22T07:17:16.847Z,106.88
2018-02-22T07:18:16.744Z,106.88
2018-02-22T07:19:16.709Z,112.50
2018-02-22T07:20:16.687Z,112.50
2018-02-22T07:21:16.723Z,112.50
2018-02-22T07:22:16.613Z,118.13
2018-02-22T07:23:17.006Z,118.13
2018-02-22T07:24:16.610Z,118.13
2018-02-22T07:25:16.580Z,123.75
2018-02-22T07:26:16.555Z,123.75
2018-02-22T07:27:16.490Z,123.75
2018-02-22T07:28:16.512Z,129.38
2018-02-22T07:29:16.476Z,129.38
2018-02-22T07:30:16.397Z,129.38
2018-02-22T07:31:16.379Z,129.38
2018-02-22T07:32:16.343Z,135.00
2018-02-22T07:33:16.300Z,135.00
2018-02-22T07:34:16.306Z,135.00
2018-02-22T07:35:16.244Z,140.63
2018-02-22T07:36:16.163Z,140.63
2018-02-22T07:37:16.162Z,140.63
2018-02-22T07:38:16.110Z,140.63
2018-02-22T07:39:16.101Z,146.25
2018-02-22T07:40:16.046Z,146.25
2018-02-22T07:41:16.038Z,146.25
2018-02-22T07:42:15.968Z,151.88
2018-02-22T07:43:15.930Z,151.88
2018-02-22T07:44:15.889Z,151.88
2018-02-22T07:45:15.879Z,151.88
2018-02-22T07:46:15.840Z,157.50
2018-02-22T07:47:15.856Z,157.50
2018-02-22T07:48:15.762Z,157.50
2018-02-22T07:49:15.770Z,157.50
2018-02-22T07:50:15.691Z,163.13
2018-02-22T07:51:15.649Z,163.13
2018-02-22T07:52:15.597Z,163.13
2018-02-22T07:53:15.594Z,163.13
2018-02-22T07:54:15.580Z,168.75
2018-02-22T07:55:15.510Z,168.75
2018-02-22T07:56:15.530Z,168.75
2018-02-22T07:57:15.425Z,168.75
2018-02-22T07:58:15.404Z,174.38
2018-02-22T07:59:15.402Z,174.38
2018-02-22T08:00:15.350Z,174.38
2018-02-22T08:01:15.305Z,174.38
2018-02-22T08:02:15.273Z,174.38
2018-02-22T08:03:15.229Z,180.00
2018-02-22T08:04:15.212Z,180.00
2018-02-22T08:05:15.353Z,180.00
2018-02-22T08:06:15.122Z,180.00
2018-02-22T08:07:15.146Z,185.63
2018-02-22T08:08:15.056Z,185.63
2018-02-22T08:09:14.989Z,185.63
2018-02-22T08:10:14.982Z,185.63
2018-02-22T08:11:15.024Z,191.25
2018-02-22T08:12:14.937Z,191.25
2018-02-22T08:13:14.905Z,191.25
2018-02-22T08:14:14.904Z,191.25
2018-02-22T08:15:14.839Z,191.25
2018-02-22T08:16:14.843Z,196.88
2018-02-22T08:17:14.771Z,196.88
2018-02-22T08:18:14.705Z,196.88
2018-02-22T08:19:14.664Z,196.88
2018-02-22T08:20:14.705Z,196.88
2018-02-22T08:21:14.606Z,202.50
2018-02-22T08:22:14.610Z,202.50
2018-02-22T08:23:14.566Z,202.50
2018-02-22T08:24:14.553Z,202.50
2018-02-22T08:25:14.484Z,202.50
2018-02-22T08:26:14.465Z,202.50
2018-02-22T08:27:14.428Z,202.50
2018-02-22T08:28:14.366Z,202.50
2018-02-22T08:29:14.323Z,202.50
2018-02-22T08:30:14.307Z,202.50
2018-02-22T08:31:14.282Z,208.13
2018-02-22T08:32:14.216Z,208.13
2018-02-22T08:33:14.198Z,208.13
2018-02-22T08:34:14.145Z,208.13
2018-02-22T08:35:14.123Z,208.13
2018-02-22T08:36:14.151Z,213.75
2018-02-22T08:37:14.065Z,213.75
2018-02-22T08:38:14.060Z,213.75
2018-02-22T08:39:14.100Z,213.75
2018-02-22T08:40:13.973Z,213.75
2018-02-22T08:41:13.974Z,219.38
2018-02-22T08:42:13.877Z,219.38
2018-02-22T08:43:13.871Z,219.38
2018-02-22T08:44:13.834Z,219.38
2018-02-22T08:45:13.791Z,219.38
2018-02-22T08:46:13.774Z,219.38
2018-02-22T08:47:13.706Z,225.00
2018-02-22T08:48:13.687Z,225.00
2018-02-22T08:49:13.649Z,225.00
2018-02-22T08:50:13.686Z,225.00
2018-02-22T08:51:13.631Z,225.00
2018-02-22T08:52:13.554Z,230.63
2018-02-22T08:53:13.503Z,230.63
2018-02-22T08:54:13.526Z,230.63
2018-02-22T08:55:13.472Z,230.63
2018-02-22T08:56:13.429Z,230.63
2018-02-22T08:57:13.402Z,230.63
2018-02-22T08:58:13.389Z,236.25
2018-02-22T08:59:13.344Z,236.25
2018-02-22T09:00:13.286Z,236.25
2018-02-22T09:01:13.264Z,236.25
2018-02-22T09:02:13.186Z,236.25
2018-02-22T09:03:13.183Z,241.88
2018-02-22T09:04:13.157Z,241.88
2018-02-22T09:05:13.088Z,241.88
2018-02-22T09:06:13.081Z,247.50
2018-02-22T09:07:13.041Z,247.50
2018-02-22T09:08:13.036Z,247.50
2018-02-22T09:09:13.017Z,247.50
2018-02-22T09:10:12.986Z,247.50
2018-02-22T09:11:12.918Z,247.50
2018-02-22T09:12:12.849Z,253.13
2018-02-22T09:13:12.854Z,253.13
2018-02-22T09:14:12.810Z,253.13
2018-02-22T09:15:12.774Z,253.13
2018-02-22T09:16:12.746Z,253.13
2018-02-22T09:17:12.696Z,258.75
2018-02-22T09:18:12.651Z,258.75
2018-02-22T09:19:12.639Z,258.75
2018-02-22T09:20:12.623Z,258.75
2018-02-22T09:21:12.583Z,258.75
2018-02-22T09:22:12.533Z,264.38
2018-02-22T09:23:12.505Z,264.38
2018-02-22T09:24:12.474Z,264.38
2018-02-22T09:25:12.466Z,264.38
2018-02-22T09:26:12.416Z,270.00
2018-02-22T09:27:12.376Z,270.00
2018-02-22T09:28:12.334Z,270.00
2018-02-22T09:29:12.340Z,270.00
2018-02-22T09:30:12.287Z,270.00
2018-02-22T09:31:12.213Z,275.63
2018-02-22T09:32:12.223Z,275.63
2018-02-22T09:33:12.171Z,275.63
2018-02-22T09:34:12.160Z,281.25
2018-02-22T09:35:12.139Z,281.25
2018-02-22T09:36:12.042Z,281.25
2018-02-22T09:37:12.147Z,281.25
2018-02-22T09:38:12.053Z,286.88
2018-02-22T09:39:11.973Z,292.50
2018-02-22T09:40:11.934Z,286.88
2018-02-22T09:41:11.905Z,292.50
2018-02-22T09:42:11.868Z,292.50
2018-02-22T09:43:11.829Z,298.13
2018-02-22T09:44:11.823Z,298.13
2018-02-22T09:45:11.795Z,298.13
2018-02-22T09:46:11.692Z,303.75
2018-02-22T09:47:11.712Z,303.75
2018-02-22T09:48:11.650Z,298.13
2018-02-22T09:49:11.636Z,298.13
2018-02-22T09:50:11.605Z,303.75
2018-02-22T09:51:11.517Z,303.75
2018-02-22T09:52:11.527Z,303.75
2018-02-22T09:53:11.532Z,309.38
2018-02-22T09:54:11.462Z,309.38
2018-02-22T09:55:11.458Z,309.38
2018-02-22T09:56:11.385Z,309.38
2018-02-22T09:57:11.348Z,315.00
2018-02-22T09:58:11.326Z,320.63
2018-02-22T09:59:11.252Z,309.38
2018-02-22T10:00:11.217Z,320.63
2018-02-22T10:01:11.180Z,326.25
2018-02-22T10:02:11.291Z,326.25
2018-02-22T10:03:11.161Z,326.25
2018-02-22T10:04:11.125Z,326.25
2018-02-22T10:05:11.053Z,337.50
2018-02-22T10:06:11.185Z,326.25
2018-02-22T10:07:11.148Z,337.50
2018-02-22T10:08:10.954Z,337.50
2018-02-22T10:09:10.928Z,343.13
2018-02-22T10:10:10.893Z,337.50
2018-02-22T10:11:10.852Z,343.13
2018-02-22T10:12:10.958Z,343.13
2018-02-22T10:13:10.792Z,354.38
2018-02-22T10:14:10.757Z,354.38
2018-02-22T10:15:10.770Z,348.75
2018-02-22T10:16:10.728Z,354.38
2018-02-22T10:17:10.659Z,354.38
2018-02-22T10:18:10.665Z,354.38
2018-02-22T10:19:10.631Z,360.00
2018-02-22T10:20:10.612Z,360.00
2018-02-22T10:21:10.535Z,371.25
2018-02-22T10:22:10.668Z,371.25
2018-02-22T10:23:10.580Z,365.63
2018-02-22T10:24:10.436Z,376.88
2018-02-22T10:25:10.405Z,376.88
2018-02-22T10:26:10.381Z,376.88
2018-02-22T10:27:10.357Z,376.88
2018-02-22T10:28:10.303Z,376.88
2018-02-22T10:29:10.284Z,376.88
2018-02-22T10:30:10.253Z,399.38
2018-02-22T10:31:10.208Z,399.38
2018-02-22T10:32:10.174Z,382.50
2018-02-22T10:33:10.247Z,382.50
2018-02-22T10:34:10.109Z,393.75
2018-02-22T10:35:10.087Z,399.38
2018-02-22T10:36:10.068Z,393.75
2018-02-22T10:37:10.140Z,382.50
2018-02-22T10:38:09.989Z,388.13
2018-02-22T10:39:10.056Z,371.25
2018-02-22T10:40:09.929Z,405.00
2018-02-22T10:41:09.892Z,405.00
2018-02-22T10:42:09.880Z,399.38
2018-02-22T10:43:09.863Z,393.75
2018-02-22T10:44:09.792Z,399.38
2018-02-22T10:45:09.783Z,399.38
2018-02-22T10:46:09.737Z,405.00
2018-02-22T10:47:09.731Z,405.00
2018-02-22T10:48:09.692Z,410.63
2018-02-22T10:49:09.745Z,410.63
2018-02-22T10:50:09.658Z,416.25
2018-02-22T10:51:09.616Z,410.63
2018-02-22T10:52:09.542Z,427.50
2018-02-22T10:53:09.548Z,416.25
2018-02-22T10:54:09.565Z,416.25
2018-02-22T10:55:09.453Z,410.63
2018-02-22T10:56:09.412Z,416.25
2018-02-22T10:57:09.475Z,421.88
2018-02-22T10:58:10.238Z,416.25
2018-02-22T10:59:09.422Z,427.50
2018-02-22T11:00:09.286Z,433.13
2018-02-22T11:01:10.128Z,433.13
2018-02-22T11:02:09.250Z,421.88
2018-02-22T11:03:09.212Z,421.88
2018-02-22T11:04:09.216Z,438.75
2018-02-22T11:05:09.132Z,433.13
2018-02-22T11:06:09.119Z,444.38
2018-02-22T11:07:09.068Z,466.88
2018-02-22T11:08:09.090Z,444.38
2018-02-22T11:09:09.090Z,450.00
2018-02-22T11:10:09.015Z,416.25
2018-02-22T11:11:09.104Z,461.25
2018-02-22T11:12:08.905Z,416.25
2018-02-22T11:13:08.929Z,472.50
2018-02-22T11:14:08.899Z,472.50
2018-02-22T11:15:08.855Z,472.50
2018-02-22T11:16:09.117Z,461.25
2018-02-22T11:17:09.012Z,461.25
2018-02-22T11:18:09.633Z,478.13
2018-02-22T11:19:08.693Z,511.88
2018-02-22T11:20:08.710Z,517.50
2018-02-22T11:21:08.705Z,540.00
2018-02-22T11:22:08.599Z,528.75
2018-02-22T11:23:08.636Z,506.25
2018-02-22T11:24:08.580Z,551.25
2018-02-22T11:25:08.513Z,540.00
2018-02-22T11:26:08.468Z,523.13
2018-02-22T11:27:08.484Z,545.63
2018-02-22T11:28:08.437Z,540.00
2018-02-22T11:29:08.598Z,534.38
2018-02-22T11:30:08.432Z,545.63
2018-02-22T11:31:08.323Z,556.88
2018-02-22T11:32:08.287Z,450.00
2018-02-22T11:33:08.376Z,562.50
2018-02-22T11:34:08.225Z,579.38
2018-02-22T11:35:08.196Z,601.88
2018-02-22T11:36:08.194Z,607.50
2018-02-22T11:37:08.160Z,573.75
2018-02-22T11:38:08.104Z,551.25
2018-02-22T11:39:08.173Z,545.63
2018-02-22T11:40:08.042Z,433.13
2018-02-22T11:41:08.042Z,523.13
2018-02-22T11:42:08.169Z,573.75
2018-02-22T11:43:07.952Z,579.38
2018-02-22T11:44:07.920Z,427.50
2018-02-22T11:45:07.923Z,534.38
2018-02-22T11:46:07.859Z,523.13
2018-02-22T11:47:08.006Z,444.38
2018-02-22T11:48:07.891Z,534.38
2018-02-22T11:49:07.875Z,540.00
2018-02-22T11:50:07.883Z,551.25
2018-02-22T11:51:07.738Z,540.00
2018-02-22T11:52:07.678Z,528.75
2018-02-22T11:53:07.819Z,540.00
2018-02-22T11:54:07.644Z,556.88
2018-02-22T11:55:07.581Z,568.13
2018-02-22T11:56:07.563Z,551.25
2018-02-22T11:57:07.542Z,568.13
2018-02-22T11:58:07.502Z,579.38
2018-02-22T11:59:07.460Z,568.13
2018-02-22T12:00:07.445Z,568.13
2018-02-22T12:01:07.400Z,568.13
2018-02-22T12:02:07.436Z,573.75
2018-02-22T12:03:07.369Z,585.00
2018-02-22T12:04:07.314Z,590.63
2018-02-22T12:05:07.393Z,596.25
2018-02-22T12:06:07.298Z,607.50
2018-02-22T12:07:07.224Z,624.38
2018-02-22T12:08:07.195Z,635.63
2018-02-22T12:09:07.187Z,658.13
2018-02-22T12:10:07.291Z,658.13
2018-02-22T12:11:07.117Z,658.13
2018-02-22T12:12:07.091Z,663.75
2018-02-22T12:13:07.058Z,658.13
2018-02-22T12:14:07.203Z,675.00
2018-02-22T12:15:06.997Z,680.63
2018-02-22T12:16:07.043Z,691.88
2018-02-22T12:17:06.944Z,697.50
2018-02-22T12:18:06.933Z,703.13
2018-02-22T12:19:06.880Z,714.38
2018-02-22T12:20:06.851Z,736.88
2018-02-22T12:21:06.832Z,753.75
2018-02-22T12:22:06.794Z,748.13
2018-02-22T12:23:06.771Z,753.75
2018-02-22T12:24:06.929Z,765.00
2018-02-22T12:25:06.731Z,776.25
2018-02-22T12:26:06.770Z,793.13
2018-02-22T12:27:06.671Z,810.00
2018-02-22T12:28:06.770Z,843.75
2018-02-22T12:29:06.607Z,894.38
2018-02-22T12:30:06.711Z,1001.25
2018-02-22T12:31:06.554Z,1417.50
2018-02-22T12:32:06.584Z,2823.75
2018-02-22T12:33:06.504Z,4061.25
2018-02-22T12:34:06.475Z,4432.50
2018-02-22T12:35:06.618Z,4370.63
2018-02-22T12:36:06.417Z,3774.38
2018-02-22T12:37:06.389Z,4455.00
2018-02-22T12:38:06.371Z,4758.75
2018-02-22T12:39:06.337Z,4792.50
2018-02-22T12:40:06.392Z,5771.25
2018-02-22T12:41:06.423Z,5394.38
2018-02-22T12:42:06.480Z,5180.63
2018-02-22T12:43:06.241Z,4865.63
2018-02-22T12:44:06.216Z,4882.50
2018-02-22T12:45:06.300Z,4719.38
2018-02-22T12:46:06.162Z,4426.88
2018-02-22T12:47:06.138Z,4933.13
2018-02-22T12:48:06.125Z,5011.88
2018-02-22T12:49:06.082Z,4623.75
2018-02-22T12:50:06.066Z,5152.50
2018-02-22T12:51:06.081Z,5214.38
2018-02-22T12:52:06.002Z,5124.38
2018-02-22T12:53:05.988Z,4680.00